Terminal Aerodrome Forecast
Issued by NWS

Home | Current Version | Previous Version | Text Only | Print | Product List | Glossary On
Versions: 1 2 3 4 5 6 7 8 9 10 11 12 13 14
638
FTUS46 KMTR 090538
TAFSNS
TAF
KSNS 090538Z 0906/1006 12008KT P6SM VCSH SCT012 BKN025 OVC035
     FM091200 12013KT 5SM BR OVC012
     FM092100 13008KT P6SM VCSH SCT015 OVC025=

USA.gov is the U.S. government's official web portal to all federal, state and local government web resources and services.